sensor_id;sensor_type;location;lat;lon;timestamp;P1;durP1;ratioP1;P2;durP2;ratioP2
5961;SDS011;3007;50.770;0.250;2023-09-08T00:00:15;6.05;;;5.60;;
5961;SDS011;3007;50.770;0.250;2023-09-08T00:02:42;6.00;;;5.15;;
5961;SDS011;3007;50.770;0.250;2023-09-08T00:05:09;6.68;;;5.13;;
5961;SDS011;3007;50.770;0.250;2023-09-08T00:07:36;5.90;;;5.28;;
5961;SDS011;3007;50.770;0.250;2023-09-08T00:10:03;7.40;;;6.25;;
5961;SDS011;3007;50.770;0.250;2023-09-08T00:12:32;6.03;;;5.43;;
5961;SDS011;3007;50.770;0.250;2023-09-08T00:15:00;6.05;;;5.07;;
5961;SDS011;3007;50.770;0.250;2023-09-08T00:17:27;5.90;;;5.40;;
5961;SDS011;3007;50.770;0.250;2023-09-08T00:19:54;7.60;;;5.53;;
5961;SDS011;3007;50.770;0.250;2023-09-08T00:22:23;6.45;;;5.50;;
5961;SDS011;3007;50.770;0.250;2023-09-08T00:24:50;7.45;;;6.03;;
5961;SDS011;3007;50.770;0.250;2023-09-08T00:27:17;5.93;;;5.30;;
5961;SDS011;3007;50.770;0.250;2023-09-08T00:29:44;6.22;;;5.63;;
5961;SDS011;3007;50.770;0.250;2023-09-08T00:32:12;5.95;;;5.35;;
5961;SDS011;3007;50.770;0.250;2023-09-08T00:34:40;6.75;;;5.10;;
5961;SDS011;3007;50.770;0.250;2023-09-08T00:37:07;7.75;;;5.55;;
5961;SDS011;3007;50.770;0.250;2023-09-08T00:39:35;8.00;;;5.60;;
5961;SDS011;3007;50.770;0.250;2023-09-08T00:42:01;5.72;;;5.18;;
5961;SDS011;3007;50.770;0.250;2023-09-08T00:44:29;6.30;;;4.93;;
5961;SDS011;3007;50.770;0.250;2023-09-08T00:46:55;6.90;;;5.22;;
5961;SDS011;3007;50.770;0.250;2023-09-08T00:49:24;5.20;;;4.57;;
5961;SDS011;3007;50.770;0.250;2023-09-08T00:51:51;12.27;;;5.50;;
5961;SDS011;3007;50.770;0.250;2023-09-08T00:54:18;5.78;;;4.88;;
5961;SDS011;3007;50.770;0.250;2023-09-08T00:56:45;5.72;;;4.80;;
5961;SDS011;3007;50.770;0.250;2023-09-08T00:59:14;5.15;;;4.65;;
5961;SDS011;3007;50.770;0.250;2023-09-08T01:01:42;5.60;;;5.03;;
5961;SDS011;3007;50.770;0.250;2023-09-08T01:04:09;5.43;;;4.63;;
5961;SDS011;3007;50.770;0.250;2023-09-08T01:06:37;6.13;;;4.57;;
5961;SDS011;3007;50.770;0.250;2023-09-08T01:09:05;7.32;;;4.60;;
5961;SDS011;3007;50.770;0.250;2023-09-08T01:11:33;4.57;;;4.05;;
5961;SDS011;3007;50.770;0.250;2023-09-08T01:14:00;7.28;;;4.45;;
5961;SDS011;3007;50.770;0.250;2023-09-08T01:16:27;6.78;;;4.13;;
5961;SDS011;3007;50.770;0.250;2023-09-08T01:18:54;5.28;;;4.05;;
5961;SDS011;3007;50.770;0.250;2023-09-08T01:21:46;4.60;;;4.03;;
5961;SDS011;3007;50.770;0.250;2023-09-08T01:24:33;5.45;;;4.28;;
5961;SDS011;3007;50.770;0.250;2023-09-08T01:27:17;6.40;;;4.50;;
5961;SDS011;3007;50.770;0.250;2023-09-08T01:29:46;3.70;;;3.30;;
5961;SDS011;3007;50.770;0.250;2023-09-08T01:32:14;4.20;;;3.80;;
5961;SDS011;3007;50.770;0.250;2023-09-08T01:34:42;3.90;;;3.60;;
5961;SDS011;3007;50.770;0.250;2023-09-08T01:37:09;4.10;;;3.70;;
5961;SDS011;3007;50.770;0.250;2023-09-08T01:39:36;4.22;;;3.50;;
5961;SDS011;3007;50.770;0.250;2023-09-08T01:42:03;4.93;;;4.30;;
5961;SDS011;3007;50.770;0.250;2023-09-08T01:44:31;3.60;;;3.20;;
5961;SDS011;3007;50.770;0.250;2023-09-08T01:46:58;4.38;;;3.97;;
5961;SDS011;3007;50.770;0.250;2023-09-08T01:49:25;4.32;;;3.97;;
5961;SDS011;3007;50.770;0.250;2023-09-08T01:51:52;4.20;;;3.80;;
5961;SDS011;3007;50.770;0.250;2023-09-08T01:54:19;7.90;;;3.90;;
5961;SDS011;3007;50.770;0.250;2023-09-08T01:56:46;5.18;;;3.88;;
5961;SDS011;3007;50.770;0.250;2023-09-08T01:59:13;3.95;;;3.60;;
5961;SDS011;3007;50.770;0.250;2023-09-08T02:01:41;5.70;;;4.07;;
5961;SDS011;3007;50.770;0.250;2023-09-08T02:04:08;5.45;;;3.88;;
5961;SDS011;3007;50.770;0.250;2023-09-08T02:06:34;3.95;;;3.53;;
5961;SDS011;3007;50.770;0.250;2023-09-08T02:09:01;4.55;;;3.80;;
5961;SDS011;3007;50.770;0.250;2023-09-08T02:11:29;4.70;;;3.20;;
5961;SDS011;3007;50.770;0.250;2023-09-08T02:13:56;3.55;;;3.25;;
5961;SDS011;3007;50.770;0.250;2023-09-08T02:16:23;4.03;;;3.65;;
5961;SDS011;3007;50.770;0.250;2023-09-08T02:18:51;4.68;;;3.63;;
5961;SDS011;3007;50.770;0.250;2023-09-08T02:21:18;3.45;;;3.15;;
5961;SDS011;3007;50.770;0.250;2023-09-08T02:23:45;3.92;;;3.50;;
5961;SDS011;3007;50.770;0.250;2023-09-08T02:26:12;5.00;;;3.45;;
5961;SDS011;3007;50.770;0.250;2023-09-08T02:28:38;4.43;;;3.33;;
5961;SDS011;3007;50.770;0.250;2023-09-08T02:31:05;5.20;;;3.53;;
5961;SDS011;3007;50.770;0.250;2023-09-08T02:33:32;3.88;;;3.42;;
5961;SDS011;3007;50.770;0.250;2023-09-08T02:36:03;6.13;;;3.38;;
5961;SDS011;3007;50.770;0.250;2023-09-08T02:38:30;3.92;;;3.40;;
5961;SDS011;3007;50.770;0.250;2023-09-08T02:40:57;3.70;;;3.25;;
5961;SDS011;3007;50.770;0.250;2023-09-08T02:43:24;4.43;;;3.40;;
5961;SDS011;3007;50.770;0.250;2023-09-08T02:45:52;4.03;;;3.33;;
5961;SDS011;3007;50.770;0.250;2023-09-08T02:48:19;4.15;;;3.53;;
5961;SDS011;3007;50.770;0.250;2023-09-08T02:50:46;4.03;;;3.30;;
5961;SDS011;3007;50.770;0.250;2023-09-08T02:53:14;5.30;;;3.75;;
5961;SDS011;3007;50.770;0.250;2023-09-08T02:55:41;5.18;;;3.70;;
5961;SDS011;3007;50.770;0.250;2023-09-08T02:58:08;3.67;;;3.38;;
5961;SDS011;3007;50.770;0.250;2023-09-08T03:00:35;4.72;;;3.40;;
5961;SDS011;3007;50.770;0.250;2023-09-08T03:03:02;3.70;;;2.72;;
5961;SDS011;3007;50.770;0.250;2023-09-08T03:05:31;4.97;;;3.60;;
5961;SDS011;3007;50.770;0.250;2023-09-08T03:07:58;4.57;;;3.30;;
5961;SDS011;3007;50.770;0.250;2023-09-08T03:10:26;3.60;;;3.25;;
5961;SDS011;3007;50.770;0.250;2023-09-08T03:12:53;5.07;;;3.47;;
5961;SDS011;3007;50.770;0.250;2023-09-08T03:15:20;6.22;;;4.30;;
5961;SDS011;3007;50.770;0.250;2023-09-08T03:17:47;4.43;;;3.92;;
5961;SDS011;3007;50.770;0.250;2023-09-08T03:20:15;6.07;;;3.78;;
5961;SDS011;3007;50.770;0.250;2023-09-08T03:22:42;4.88;;;3.53;;
5961;SDS011;3007;50.770;0.250;2023-09-08T03:25:09;3.40;;;3.05;;
5961;SDS011;3007;50.770;0.250;2023-09-08T03:27:40;3.63;;;3.25;;
5961;SDS011;3007;50.770;0.250;2023-09-08T03:30:07;4.22;;;3.08;;
5961;SDS011;3007;50.770;0.250;2023-09-08T03:32:35;6.68;;;3.70;;
5961;SDS011;3007;50.770;0.250;2023-09-08T03:35:02;5.55;;;3.03;;
5961;SDS011;3007;50.770;0.250;2023-09-08T03:37:30;3.00;;;2.70;;
5961;SDS011;3007;50.770;0.250;2023-09-08T03:39:56;4.85;;;2.85;;
5961;SDS011;3007;50.770;0.250;2023-09-08T03:42:23;4.07;;;3.47;;
5961;SDS011;3007;50.770;0.250;2023-09-08T03:44:51;4.32;;;2.97;;
5961;SDS011;3007;50.770;0.250;2023-09-08T03:47:18;5.63;;;3.08;;
5961;SDS011;3007;50.770;0.250;2023-09-08T03:49:45;4.63;;;2.80;;
5961;SDS011;3007;50.770;0.250;2023-09-08T03:52:12;6.05;;;2.90;;
5961;SDS011;3007;50.770;0.250;2023-09-08T03:54:39;3.65;;;3.17;;
5961;SDS011;3007;50.770;0.250;2023-09-08T03:57:06;3.50;;;2.90;;
5961;SDS011;3007;50.770;0.250;2023-09-08T03:59:33;3.33;;;3.03;;
5961;SDS011;3007;50.770;0.250;2023-09-08T04:02:01;5.25;;;3.60;;
5961;SDS011;3007;50.770;0.250;2023-09-08T04:04:28;3.85;;;2.80;;
5961;SDS011;3007;50.770;0.250;2023-09-08T04:06:55;5.75;;;3.30;;
5961;SDS011;3007;50.770;0.250;2023-09-08T04:09:21;5.10;;;3.08;;
5961;SDS011;3007;50.770;0.250;2023-09-08T04:11:48;3.85;;;2.80;;
5961;SDS011;3007;50.770;0.250;2023-09-08T04:14:15;3.70;;;2.72;;
5961;SDS011;3007;50.770;0.250;2023-09-08T04:16:42;2.70;;;2.50;;
5961;SDS011;3007;50.770;0.250;2023-09-08T04:19:11;3.20;;;2.90;;
5961;SDS011;3007;50.770;0.250;2023-09-08T04:21:37;3.03;;;2.83;;
5961;SDS011;3007;50.770;0.250;2023-09-08T04:24:05;4.20;;;2.72;;
5961;SDS011;3007;50.770;0.250;2023-09-08T04:26:35;2.85;;;2.55;;
5961;SDS011;3007;50.770;0.250;2023-09-08T04:29:02;3.10;;;2.80;;
5961;SDS011;3007;50.770;0.250;2023-09-08T04:31:29;3.58;;;2.78;;
5961;SDS011;3007;50.770;0.250;2023-09-08T04:33:55;4.32;;;3.08;;
5961;SDS011;3007;50.770;0.250;2023-09-08T04:36:24;3.08;;;2.65;;
5961;SDS011;3007;50.770;0.250;2023-09-08T04:38:53;5.22;;;2.80;;
5961;SDS011;3007;50.770;0.250;2023-09-08T04:41:20;3.35;;;2.67;;
5961;SDS011;3007;50.770;0.250;2023-09-08T04:43:46;3.58;;;2.90;;
5961;SDS011;3007;50.770;0.250;2023-09-08T04:46:13;8.48;;;2.83;;
5961;SDS011;3007;50.770;0.250;2023-09-08T04:48:40;3.97;;;2.75;;
5961;SDS011;3007;50.770;0.250;2023-09-08T04:51:07;6.07;;;3.20;;
5961;SDS011;3007;50.770;0.250;2023-09-08T04:53:36;3.97;;;2.92;;
5961;SDS011;3007;50.770;0.250;2023-09-08T04:56:03;5.43;;;2.95;;
5961;SDS011;3007;50.770;0.250;2023-09-08T04:58:30;4.03;;;2.83;;
5961;SDS011;3007;50.770;0.250;2023-09-08T05:00:57;6.28;;;3.80;;
5961;SDS011;3007;50.770;0.250;2023-09-08T05:03:23;8.35;;;3.10;;
5961;SDS011;3007;50.770;0.250;2023-09-08T05:05:51;4.35;;;3.10;;
5961;SDS011;3007;50.770;0.250;2023-09-08T05:08:18;3.40;;;3.10;;
5961;SDS011;3007;50.770;0.250;2023-09-08T05:10:46;3.40;;;2.78;;
5961;SDS011;3007;50.770;0.250;2023-09-08T05:13:13;4.57;;;3.13;;
5961;SDS011;3007;50.770;0.250;2023-09-08T05:15:40;5.68;;;2.70;;
5961;SDS011;3007;50.770;0.250;2023-09-08T05:18:09;3.28;;;2.97;;
5961;SDS011;3007;50.770;0.250;2023-09-08T05:20:35;4.22;;;3.20;;
5961;SDS011;3007;50.770;0.250;2023-09-08T05:23:02;5.25;;;3.30;;
5961;SDS011;3007;50.770;0.250;2023-09-08T05:25:29;2.72;;;2.50;;
5961;SDS011;3007;50.770;0.250;2023-09-08T05:27:58;4.43;;;3.10;;
5961;SDS011;3007;50.770;0.250;2023-09-08T05:30:25;3.70;;;2.80;;
5961;SDS011;3007;50.770;0.250;2023-09-08T05:32:52;2.60;;;2.40;;
5961;SDS011;3007;50.770;0.250;2023-09-08T05:35:22;3.15;;;2.85;;
5961;SDS011;3007;50.770;0.250;2023-09-08T05:37:52;3.47;;;3.03;;
5961;SDS011;3007;50.770;0.250;2023-09-08T05:40:18;2.90;;;2.70;;
5961;SDS011;3007;50.770;0.250;2023-09-08T05:42:49;5.22;;;3.28;;
5961;SDS011;3007;50.770;0.250;2023-09-08T05:45:17;3.63;;;2.63;;
5961;SDS011;3007;50.770;0.250;2023-09-08T05:47:44;4.20;;;3.10;;
5961;SDS011;3007;50.770;0.250;2023-09-08T05:50:11;5.28;;;3.00;;
5961;SDS011;3007;50.770;0.250;2023-09-08T05:52:38;3.92;;;3.00;;
5961;SDS011;3007;50.770;0.250;2023-09-08T05:55:05;3.30;;;2.60;;
5961;SDS011;3007;50.770;0.250;2023-09-08T05:57:32;3.88;;;2.90;;
5961;SDS011;3007;50.770;0.250;2023-09-08T05:59:59;4.63;;;2.90;;
5961;SDS011;3007;50.770;0.250;2023-09-08T06:02:28;2.78;;;2.47;;
5961;SDS011;3007;50.770;0.250;2023-09-08T06:04:54;3.30;;;3.00;;
5961;SDS011;3007;50.770;0.250;2023-09-08T06:07:22;3.00;;;2.70;;
5961;SDS011;3007;50.770;0.250;2023-09-08T06:09:57;6.20;;;2.55;;
5961;SDS011;3007;50.770;0.250;2023-09-08T06:12:24;4.47;;;3.42;;
5961;SDS011;3007;50.770;0.250;2023-09-08T06:14:53;3.08;;;2.80;;
5961;SDS011;3007;50.770;0.250;2023-09-08T06:17:20;2.80;;;2.60;;
5961;SDS011;3007;50.770;0.250;2023-09-08T06:19:48;2.42;;;2.22;;
5961;SDS011;3007;50.770;0.250;2023-09-08T06:22:15;2.95;;;2.75;;
5961;SDS011;3007;50.770;0.250;2023-09-08T06:24:45;3.35;;;3.05;;
5961;SDS011;3007;50.770;0.250;2023-09-08T06:27:13;4.40;;;3.30;;
5961;SDS011;3007;50.770;0.250;2023-09-08T06:29:41;3.13;;;2.67;;
5961;SDS011;3007;50.770;0.250;2023-09-08T06:32:09;3.35;;;2.58;;
5961;SDS011;3007;50.770;0.250;2023-09-08T06:34:38;3.05;;;2.85;;
5961;SDS011;3007;50.770;0.250;2023-09-08T06:37:06;3.15;;;2.88;;
5961;SDS011;3007;50.770;0.250;2023-09-08T06:39:33;5.90;;;3.90;;
5961;SDS011;3007;50.770;0.250;2023-09-08T06:42:02;4.13;;;3.83;;
5961;SDS011;3007;50.770;0.250;2023-09-08T06:44:30;4.43;;;3.72;;
5961;SDS011;3007;50.770;0.250;2023-09-08T06:46:57;3.20;;;2.90;;
5961;SDS011;3007;50.770;0.250;2023-09-08T06:49:24;5.70;;;3.08;;
5961;SDS011;3007;50.770;0.250;2023-09-08T06:51:50;6.30;;;2.65;;
5961;SDS011;3007;50.770;0.250;2023-09-08T06:54:19;5.00;;;2.80;;
5961;SDS011;3007;50.770;0.250;2023-09-08T06:56:45;3.20;;;2.22;;
5961;SDS011;3007;50.770;0.250;2023-09-08T06:59:12;3.45;;;2.90;;
5961;SDS011;3007;50.770;0.250;2023-09-08T07:01:39;3.28;;;2.65;;
5961;SDS011;3007;50.770;0.250;2023-09-08T07:04:06;2.70;;;2.47;;
5961;SDS011;3007;50.770;0.250;2023-09-08T07:06:33;2.70;;;2.25;;
5961;SDS011;3007;50.770;0.250;2023-09-08T07:09:00;5.15;;;2.78;;
5961;SDS011;3007;50.770;0.250;2023-09-08T07:11:29;3.72;;;2.47;;
5961;SDS011;3007;50.770;0.250;2023-09-08T07:13:56;2.92;;;2.30;;
5961;SDS011;3007;50.770;0.250;2023-09-08T07:16:23;2.97;;;2.58;;
5961;SDS011;3007;50.770;0.250;2023-09-08T07:18:49;4.15;;;2.60;;
5961;SDS011;3007;50.770;0.250;2023-09-08T07:21:16;4.53;;;2.25;;
5961;SDS011;3007;50.770;0.250;2023-09-08T07:23:43;2.63;;;2.40;;
5961;SDS011;3007;50.770;0.250;2023-09-08T07:26:10;2.63;;;2.30;;
5961;SDS011;3007;50.770;0.250;2023-09-08T07:28:38;3.40;;;1.98;;
5961;SDS011;3007;50.770;0.250;2023-09-08T07:31:05;3.53;;;2.42;;
5961;SDS011;3007;50.770;0.250;2023-09-08T07:33:34;2.35;;;1.98;;
5961;SDS011;3007;50.770;0.250;2023-09-08T07:36:04;2.40;;;2.20;;
5961;SDS011;3007;50.770;0.250;2023-09-08T07:38:32;2.58;;;2.20;;
5961;SDS011;3007;50.770;0.250;2023-09-08T07:40:59;3.90;;;2.33;;
5961;SDS011;3007;50.770;0.250;2023-09-08T07:43:26;2.85;;;2.05;;
5961;SDS011;3007;50.770;0.250;2023-09-08T07:45:54;2.38;;;2.00;;
5961;SDS011;3007;50.770;0.250;2023-09-08T07:48:21;2.33;;;2.13;;
5961;SDS011;3007;50.770;0.250;2023-09-08T07:50:48;3.25;;;2.08;;
5961;SDS011;3007;50.770;0.250;2023-09-08T07:53:15;2.28;;;1.90;;
5961;SDS011;3007;50.770;0.250;2023-09-08T07:55:42;2.35;;;2.15;;
5961;SDS011;3007;50.770;0.250;2023-09-08T07:58:09;4.13;;;2.33;;
5961;SDS011;3007;50.770;0.250;2023-09-08T08:00:36;3.53;;;1.77;;
5961;SDS011;3007;50.770;0.250;2023-09-08T08:03:04;2.22;;;2.03;;
5961;SDS011;3007;50.770;0.250;2023-09-08T08:05:32;3.15;;;2.05;;
5961;SDS011;3007;50.770;0.250;2023-09-08T08:07:59;2.55;;;2.20;;
5961;SDS011;3007;50.770;0.250;2023-09-08T08:10:26;2.10;;;1.90;;
5961;SDS011;3007;50.770;0.250;2023-09-08T08:12:53;5.05;;;2.33;;
5961;SDS011;3007;50.770;0.250;2023-09-08T08:15:20;2.53;;;2.33;;
5961;SDS011;3007;50.770;0.250;2023-09-08T08:17:47;3.30;;;2.60;;
5961;SDS011;3007;50.770;0.250;2023-09-08T08:20:15;4.07;;;2.20;;
5961;SDS011;3007;50.770;0.250;2023-09-08T08:22:43;2.58;;;2.38;;
5961;SDS011;3007;50.770;0.250;2023-09-08T08:25:11;2.78;;;2.20;;
5961;SDS011;3007;50.770;0.250;2023-09-08T08:27:38;2.30;;;2.03;;
5961;SDS011;3007;50.770;0.250;2023-09-08T08:30:06;3.03;;;2.67;;
5961;SDS011;3007;50.770;0.250;2023-09-08T08:32:34;4.95;;;2.42;;
5961;SDS011;3007;50.770;0.250;2023-09-08T08:35:01;3.70;;;2.15;;
5961;SDS011;3007;50.770;0.250;2023-09-08T08:37:30;3.40;;;2.20;;
5961;SDS011;3007;50.770;0.250;2023-09-08T08:39:57;3.40;;;2.40;;
5961;SDS011;3007;50.770;0.250;2023-09-08T08:42:29;3.67;;;2.70;;
5961;SDS011;3007;50.770;0.250;2023-09-08T08:44:57;2.53;;;2.33;;
5961;SDS011;3007;50.770;0.250;2023-09-08T08:47:24;3.90;;;2.72;;
5961;SDS011;3007;50.770;0.250;2023-09-08T08:49:53;4.00;;;3.10;;
5961;SDS011;3007;50.770;0.250;2023-09-08T08:52:23;3.47;;;2.50;;
5961;SDS011;3007;50.770;0.250;2023-09-08T08:54:51;3.85;;;2.78;;
5961;SDS011;3007;50.770;0.250;2023-09-08T08:57:19;2.90;;;2.63;;
5961;SDS011;3007;50.770;0.250;2023-09-08T08:59:46;3.40;;;2.38;;
5961;SDS011;3007;50.770;0.250;2023-09-08T09:02:16;3.58;;;2.40;;
5961;SDS011;3007;50.770;0.250;2023-09-08T09:04:45;5.90;;;3.35;;
5961;SDS011;3007;50.770;0.250;2023-09-08T09:07:13;3.03;;;2.72;;
5961;SDS011;3007;50.770;0.250;2023-09-08T09:09:40;3.17;;;2.80;;
5961;SDS011;3007;50.770;0.250;2023-09-08T09:12:09;6.05;;;2.45;;
5961;SDS011;3007;50.770;0.250;2023-09-08T09:14:36;4.72;;;3.05;;
5961;SDS011;3007;50.770;0.250;2023-09-08T09:17:02;3.00;;;2.70;;
5961;SDS011;3007;50.770;0.250;2023-09-08T09:19:30;3.03;;;2.63;;
5961;SDS011;3007;50.770;0.250;2023-09-08T09:21:58;2.85;;;2.40;;
5961;SDS011;3007;50.770;0.250;2023-09-08T09:24:30;4.63;;;2.50;;
5961;SDS011;3007;50.770;0.250;2023-09-08T09:26:59;3.20;;;2.80;;
5961;SDS011;3007;50.770;0.250;2023-09-08T09:29:27;5.50;;;2.70;;
5961;SDS011;3007;50.770;0.250;2023-09-08T09:31:58;3.03;;;2.50;;
5961;SDS011;3007;50.770;0.250;2023-09-08T09:34:29;5.15;;;3.03;;
5961;SDS011;3007;50.770;0.250;2023-09-08T09:36:56;3.85;;;3.10;;
5961;SDS011;3007;50.770;0.250;2023-09-08T09:39:24;4.53;;;2.97;;
5961;SDS011;3007;50.770;0.250;2023-09-08T09:41:53;3.47;;;2.67;;
5961;SDS011;3007;50.770;0.250;2023-09-08T09:44:21;5.03;;;3.10;;
5961;SDS011;3007;50.770;0.250;2023-09-08T09:46:51;3.80;;;3.05;;
5961;SDS011;3007;50.770;0.250;2023-09-08T09:49:18;5.50;;;3.20;;
5961;SDS011;3007;50.770;0.250;2023-09-08T09:51:45;3.20;;;2.90;;
5961;SDS011;3007;50.770;0.250;2023-09-08T09:54:14;4.65;;;2.45;;
5961;SDS011;3007;50.770;0.250;2023-09-08T09:56:41;4.43;;;2.60;;
5961;SDS011;3007;50.770;0.250;2023-09-08T09:59:10;2.65;;;2.40;;
5961;SDS011;3007;50.770;0.250;2023-09-08T10:01:39;2.22;;;2.00;;
5961;SDS011;3007;50.770;0.250;2023-09-08T10:04:09;3.70;;;2.75;;
5961;SDS011;3007;50.770;0.250;2023-09-08T10:06:38;4.55;;;2.70;;
5961;SDS011;3007;50.770;0.250;2023-09-08T10:09:05;3.67;;;2.63;;
5961;SDS011;3007;50.770;0.250;2023-09-08T10:11:40;3.60;;;2.75;;
5961;SDS011;3007;50.770;0.250;2023-09-08T10:14:08;3.78;;;2.70;;
5961;SDS011;3007;50.770;0.250;2023-09-08T10:16:38;3.45;;;3.03;;
5961;SDS011;3007;50.770;0.250;2023-09-08T10:19:08;5.40;;;2.60;;
5961;SDS011;3007;50.770;0.250;2023-09-08T10:21:39;4.10;;;2.70;;
5961;SDS011;3007;50.770;0.250;2023-09-08T10:24:10;5.10;;;2.45;;
5961;SDS011;3007;50.770;0.250;2023-09-08T10:26:43;4.22;;;2.70;;
5961;SDS011;3007;50.770;0.250;2023-09-08T10:29:11;4.40;;;2.85;;
5961;SDS011;3007;50.770;0.250;2023-09-08T10:31:38;4.47;;;2.80;;
5961;SDS011;3007;50.770;0.250;2023-09-08T10:34:06;6.43;;;2.75;;
5961;SDS011;3007;50.770;0.250;2023-09-08T10:36:35;5.13;;;2.70;;
5961;SDS011;3007;50.770;0.250;2023-09-08T10:42:05;3.95;;;2.55;;
5961;SDS011;3007;50.770;0.250;2023-09-08T10:44:55;3.63;;;2.70;;
5961;SDS011;3007;50.770;0.250;2023-09-08T10:47:24;2.40;;;2.20;;
5961;SDS011;3007;50.770;0.250;2023-09-08T10:49:51;4.65;;;2.90;;
5961;SDS011;3007;50.770;0.250;2023-09-08T10:52:24;3.95;;;2.83;;
5961;SDS011;3007;50.770;0.250;2023-09-08T10:54:52;3.15;;;2.80;;
5961;SDS011;3007;50.770;0.250;2023-09-08T10:57:22;3.95;;;2.97;;
5961;SDS011;3007;50.770;0.250;2023-09-08T10:59:51;2.80;;;2.53;;
5961;SDS011;3007;50.770;0.250;2023-09-08T11:05:08;4.40;;;2.92;;
5961;SDS011;3007;50.770;0.250;2023-09-08T11:07:38;4.55;;;3.00;;
5961;SDS011;3007;50.770;0.250;2023-09-08T11:10:09;2.72;;;2.53;;
5961;SDS011;3007;50.770;0.250;2023-09-08T11:12:38;5.43;;;2.70;;
5961;SDS011;3007;50.770;0.250;2023-09-08T11:15:06;2.88;;;2.60;;
5961;SDS011;3007;50.770;0.250;2023-09-08T11:17:34;6.05;;;3.20;;
5961;SDS011;3007;50.770;0.250;2023-09-08T11:20:05;3.65;;;2.65;;
5961;SDS011;3007;50.770;0.250;2023-09-08T11:22:34;4.60;;;2.78;;
5961;SDS011;3007;50.770;0.250;2023-09-08T11:25:03;2.58;;;2.38;;
5961;SDS011;3007;50.770;0.250;2023-09-08T11:27:34;3.13;;;2.83;;
5961;SDS011;3007;50.770;0.250;2023-09-08T11:30:00;4.72;;;3.03;;
5961;SDS011;3007;50.770;0.250;2023-09-08T11:32:31;3.80;;;2.67;;
5961;SDS011;3007;50.770;0.250;2023-09-08T11:35:00;3.35;;;2.97;;
5961;SDS011;3007;50.770;0.250;2023-09-08T11:37:28;4.38;;;2.85;;
5961;SDS011;3007;50.770;0.250;2023-09-08T11:39:56;4.70;;;2.85;;
5961;SDS011;3007;50.770;0.250;2023-09-08T11:42:24;3.10;;;2.80;;
5961;SDS011;3007;50.770;0.250;2023-09-08T11:44:53;5.88;;;3.35;;
5961;SDS011;3007;50.770;0.250;2023-09-08T11:47:23;3.83;;;3.10;;
5961;SDS011;3007;50.770;0.250;2023-09-08T11:49:52;3.42;;;3.03;;
5961;SDS011;3007;50.770;0.250;2023-09-08T11:52:22;3.50;;;3.15;;
5961;SDS011;3007;50.770;0.250;2023-09-08T11:54:49;4.07;;;3.05;;
5961;SDS011;3007;50.770;0.250;2023-09-08T11:57:17;3.47;;;3.17;;
5961;SDS011;3007;50.770;0.250;2023-09-08T11:59:45;5.45;;;3.13;;
5961;SDS011;3007;50.770;0.250;2023-09-08T12:02:13;3.38;;;3.08;;
5961;SDS011;3007;50.770;0.250;2023-09-08T12:04:40;4.78;;;3.28;;
5961;SDS011;3007;50.770;0.250;2023-09-08T12:07:12;3.55;;;3.20;;
5961;SDS011;3007;50.770;0.250;2023-09-08T12:09:41;4.65;;;3.45;;
5961;SDS011;3007;50.770;0.250;2023-09-08T12:12:10;3.72;;;3.20;;
5961;SDS011;3007;50.770;0.250;2023-09-08T12:14:39;4.28;;;2.80;;
5961;SDS011;3007;50.770;0.250;2023-09-08T12:17:08;4.90;;;3.60;;
5961;SDS011;3007;50.770;0.250;2023-09-08T12:19:35;3.20;;;2.75;;
5961;SDS011;3007;50.770;0.250;2023-09-08T12:22:03;4.45;;;3.38;;
5961;SDS011;3007;50.770;0.250;2023-09-08T12:24:48;3.97;;;3.55;;
5961;SDS011;3007;50.770;0.250;2023-09-08T12:27:16;5.18;;;3.50;;
5961;SDS011;3007;50.770;0.250;2023-09-08T12:29:53;5.80;;;3.40;;
5961;SDS011;3007;50.770;0.250;2023-09-08T12:32:22;4.55;;;2.85;;
5961;SDS011;3007;50.770;0.250;2023-09-08T12:34:50;4.22;;;3.03;;
5961;SDS011;3007;50.770;0.250;2023-09-08T12:37:19;4.82;;;3.55;;
5961;SDS011;3007;50.770;0.250;2023-09-08T12:39:47;4.47;;;3.22;;
5961;SDS011;3007;50.770;0.250;2023-09-08T12:42:14;3.90;;;3.55;;
5961;SDS011;3007;50.770;0.250;2023-09-08T12:44:41;5.65;;;3.58;;
5961;SDS011;3007;50.770;0.250;2023-09-08T12:47:09;5.18;;;3.40;;
5961;SDS011;3007;50.770;0.250;2023-09-08T12:49:38;8.10;;;3.58;;
5961;SDS011;3007;50.770;0.250;2023-09-08T12:52:06;3.85;;;3.45;;
5961;SDS011;3007;50.770;0.250;2023-09-08T12:54:34;3.08;;;2.70;;
5961;SDS011;3007;50.770;0.250;2023-09-08T12:57:01;4.50;;;3.15;;
5961;SDS011;3007;50.770;0.250;2023-09-08T12:59:28;3.90;;;3.30;;
5961;SDS011;3007;50.770;0.250;2023-09-08T13:01:55;3.38;;;3.08;;
5961;SDS011;3007;50.770;0.250;2023-09-08T13:04:23;4.63;;;3.35;;
5961;SDS011;3007;50.770;0.250;2023-09-08T13:06:51;4.22;;;3.42;;
5961;SDS011;3007;50.770;0.250;2023-09-08T13:09:18;3.20;;;2.88;;
5961;SDS011;3007;50.770;0.250;2023-09-08T13:11:45;4.45;;;3.42;;
5961;SDS011;3007;50.770;0.250;2023-09-08T13:14:12;4.38;;;3.30;;
5961;SDS011;3007;50.770;0.250;2023-09-08T13:16:39;6.57;;;3.70;;
5961;SDS011;3007;50.770;0.250;2023-09-08T13:19:06;4.20;;;3.00;;
5961;SDS011;3007;50.770;0.250;2023-09-08T13:21:32;4.10;;;3.08;;
5961;SDS011;3007;50.770;0.250;2023-09-08T13:24:02;3.70;;;3.30;;
5961;SDS011;3007;50.770;0.250;2023-09-08T13:26:32;6.18;;;3.20;;
5961;SDS011;3007;50.770;0.250;2023-09-08T13:28:59;6.57;;;3.90;;
5961;SDS011;3007;50.770;0.250;2023-09-08T13:31:26;6.45;;;3.80;;
5961;SDS011;3007;50.770;0.250;2023-09-08T13:33:53;4.53;;;3.15;;
5961;SDS011;3007;50.770;0.250;2023-09-08T13:36:19;5.63;;;3.55;;
5961;SDS011;3007;50.770;0.250;2023-09-08T13:38:46;4.30;;;3.60;;
5961;SDS011;3007;50.770;0.250;2023-09-08T13:41:14;4.03;;;3.53;;
5961;SDS011;3007;50.770;0.250;2023-09-08T13:43:41;4.25;;;3.60;;
5961;SDS011;3007;50.770;0.250;2023-09-08T13:46:08;6.10;;;3.47;;
5961;SDS011;3007;50.770;0.250;2023-09-08T13:48:35;5.30;;;4.00;;
5961;SDS011;3007;50.770;0.250;2023-09-08T13:51:02;4.93;;;3.75;;
5961;SDS011;3007;50.770;0.250;2023-09-08T13:53:29;4.65;;;3.60;;
5961;SDS011;3007;50.770;0.250;2023-09-08T13:55:56;4.75;;;3.33;;
5961;SDS011;3007;50.770;0.250;2023-09-08T13:58:24;4.75;;;3.35;;
5961;SDS011;3007;50.770;0.250;2023-09-08T14:00:51;3.67;;;3.38;;
5961;SDS011;3007;50.770;0.250;2023-09-08T14:03:18;4.18;;;3.08;;
5961;SDS011;3007;50.770;0.250;2023-09-08T14:05:45;4.38;;;3.53;;
5961;SDS011;3007;50.770;0.250;2023-09-08T14:08:12;3.47;;;3.17;;
5961;SDS011;3007;50.770;0.250;2023-09-08T14:10:39;3.47;;;3.13;;
5961;SDS011;3007;50.770;0.250;2023-09-08T14:13:05;3.75;;;3.25;;
5961;SDS011;3007;50.770;0.250;2023-09-08T14:15:34;3.40;;;3.10;;
5961;SDS011;3007;50.770;0.250;2023-09-08T14:18:00;5.07;;;3.03;;
5961;SDS011;3007;50.770;0.250;2023-09-08T14:20:27;3.42;;;2.90;;
5961;SDS011;3007;50.770;0.250;2023-09-08T14:22:54;3.90;;;3.30;;
5961;SDS011;3007;50.770;0.250;2023-09-08T14:25:21;3.17;;;2.75;;
5961;SDS011;3007;50.770;0.250;2023-09-08T14:27:48;3.38;;;2.92;;
5961;SDS011;3007;50.770;0.250;2023-09-08T14:30:15;3.50;;;3.20;;
5961;SDS011;3007;50.770;0.250;2023-09-08T14:32:44;3.55;;;3.25;;
5961;SDS011;3007;50.770;0.250;2023-09-08T14:35:11;4.90;;;2.80;;
5961;SDS011;3007;50.770;0.250;2023-09-08T14:37:38;4.93;;;3.30;;
5961;SDS011;3007;50.770;0.250;2023-09-08T14:40:06;4.57;;;3.38;;
5961;SDS011;3007;50.770;0.250;2023-09-08T14:42:33;4.82;;;3.65;;
5961;SDS011;3007;50.770;0.250;2023-09-08T14:45:00;3.50;;;3.20;;
5961;SDS011;3007;50.770;0.250;2023-09-08T14:47:27;4.25;;;3.42;;
5961;SDS011;3007;50.770;0.250;2023-09-08T14:49:55;3.75;;;3.35;;
5961;SDS011;3007;50.770;0.250;2023-09-08T14:52:22;12.65;;;4.20;;
5961;SDS011;3007;50.770;0.250;2023-09-08T14:54:50;8.15;;;3.88;;
5961;SDS011;3007;50.770;0.250;2023-09-08T14:57:16;5.63;;;3.70;;
5961;SDS011;3007;50.770;0.250;2023-09-08T14:59:44;7.35;;;3.42;;
5961;SDS011;3007;50.770;0.250;2023-09-08T15:02:11;3.60;;;3.30;;
5961;SDS011;3007;50.770;0.250;2023-09-08T15:04:37;3.83;;;3.10;;
5961;SDS011;3007;50.770;0.250;2023-09-08T15:07:06;4.18;;;3.13;;
5961;SDS011;3007;50.770;0.250;2023-09-08T15:09:33;3.80;;;3.33;;
5961;SDS011;3007;50.770;0.250;2023-09-08T15:12:00;3.97;;;3.00;;
5961;SDS011;3007;50.770;0.250;2023-09-08T15:14:27;4.82;;;3.20;;
5961;SDS011;3007;50.770;0.250;2023-09-08T15:16:54;3.78;;;2.83;;
5961;SDS011;3007;50.770;0.250;2023-09-08T15:19:20;6.07;;;3.67;;
5961;SDS011;3007;50.770;0.250;2023-09-08T15:21:47;5.53;;;3.45;;
5961;SDS011;3007;50.770;0.250;2023-09-08T15:24:16;4.25;;;3.42;;